Time;durP1;ratioP1;P1;durP2;ratioP2;P2;SDS_P1;SDS_P2;PMS_P1;PMS_P2;Temp;Humidity;BMP_temperature;BMP_pressure;BME280_temperature;BME280_humidity;BME280_pressure;Samples;Min_cycle;Max_cycle;Signal;HPM_P1;HPM_P2
2022/04/14 00:00:18;;;;;;;10.70;10.40;;;10.40;99.90;;;;;;5060887;28;20297;-79
2022/04/14 00:02:46;;;;;;;10.50;10.20;;;10.30;99.90;;;;;;5041160;28;20227;-79
2022/04/14 00:05:15;;;;;;;10.63;10.33;;;10.30;99.90;;;;;;5041363;28;20219;-79
2022/04/14 00:07:44;;;;;;;10.90;10.60;;;10.20;99.90;;;;;;5041268;28;20269;-78
2022/04/14 00:10:12;;;;;;;10.93;10.63;;;10.10;99.90;;;;;;5041172;28;20239;-79
2022/04/14 00:12:41;;;;;;;11.20;10.90;;;10.10;99.90;;;;;;5040584;28;20231;-79
2022/04/14 00:15:11;;;;;;;10.90;10.60;;;10.10;99.90;;;;;;5041735;28;20290;-80
2022/04/14 00:17:38;;;;;;;10.70;10.40;;;10.00;99.90;;;;;;5040889;28;20235;-80
2022/04/14 00:20:09;;;;;;;10.80;10.50;;;10.00;99.90;;;;;;5041163;28;20239;-79
2022/04/14 00:22:38;;;;;;;10.60;10.30;;;10.00;99.90;;;;;;5041168;28;20251;-79
2022/04/14 00:25:10;;;;;;;10.70;10.40;;;10.00;99.90;;;;;;5049520;28;20227;-78
2022/04/14 00:27:38;;;;;;;10.60;10.30;;;10.00;99.90;;;;;;5041564;28;20235;-79
2022/04/14 00:30:07;;;;;;;10.87;10.57;;;9.90;99.90;;;;;;5040744;28;20267;-79
2022/04/14 00:32:35;;;;;;;10.57;10.27;;;9.90;99.90;;;;;;5041112;28;20270;-79
2022/04/14 00:35:03;;;;;;;10.33;10.03;;;9.90;99.90;;;;;;5041423;28;20226;-80
2022/04/14 00:37:30;;;;;;;10.23;9.93;;;9.90;99.90;;;;;;5040840;28;20266;-79
2022/04/14 00:39:59;;;;;;;10.50;10.20;;;9.90;99.90;;;;;;5041554;28;20289;-79
2022/04/14 00:42:27;;;;;;;10.40;10.10;;;9.90;99.90;;;;;;5040850;28;20318;-79
2022/04/14 00:44:55;;;;;;;10.30;10.00;;;9.80;99.90;;;;;;5040994;28;20241;-79
2022/04/14 00:47:24;;;;;;;10.37;10.07;;;9.80;99.90;;;;;;5041551;28;20302;-79
2022/04/14 00:49:51;;;;;;;10.20;9.90;;;9.80;99.90;;;;;;5040938;28;20243;-80
2022/04/14 00:52:22;;;;;;;10.47;10.17;;;9.80;99.90;;;;;;5040981;28;20267;-79
2022/04/14 00:54:50;;;;;;;10.53;10.23;;;9.80;99.90;;;;;;5041263;28;20302;-79
2022/04/14 00:57:19;;;;;;;10.63;10.33;;;9.70;99.90;;;;;;5041206;28;20231;-79
2022/04/14 00:59:47;;;;;;;10.30;10.00;;;9.70;99.90;;;;;;5041035;28;20262;-79
2022/04/14 01:02:15;;;;;;;10.57;10.27;;;9.70;99.90;;;;;;5040968;28;20223;-79
2022/04/14 01:04:42;;;;;;;10.90;10.60;;;9.60;99.90;;;;;;5044794;28;20231;-79
2022/04/14 01:07:10;;;;;;;10.90;10.60;;;9.50;99.90;;;;;;5042429;28;20227;-79
2022/04/14 01:09:38;;;;;;;10.70;10.40;;;9.40;99.90;;;;;;5041988;28;20260;-80
2022/04/14 01:12:07;;;;;;;10.97;10.67;;;9.30;99.90;;;;;;5042222;28;20297;-80
2022/04/14 01:14:38;;;;;;;11.40;11.10;;;9.20;99.90;;;;;;5042515;28;20223;-79
2022/04/14 01:17:08;;;;;;;11.03;10.73;;;9.20;99.90;;;;;;5042450;28;20227;-80
2022/04/14 01:19:37;;;;;;;10.93;10.63;;;9.10;99.90;;;;;;5042671;28;20267;-79
2022/04/14 01:22:15;;;;;;;11.20;10.90;;;9.10;99.90;;;;;;5043054;28;20231;-79
2022/04/14 01:24:44;;;;;;;11.07;10.77;;;9.10;99.90;;;;;;5043797;28;20243;-80
2022/04/14 01:27:12;;;;;;;10.87;10.57;;;9.00;99.90;;;;;;5044541;28;20231;-79
2022/04/14 01:29:39;;;;;;;10.97;10.67;;;9.00;99.90;;;;;;5045726;28;20246;-79
2022/04/14 01:32:09;;;;;;;10.80;10.50;;;9.00;99.90;;;;;;5056063;28;20222;-78
2022/04/14 01:34:36;;;;;;;10.60;10.30;;;9.00;99.90;;;;;;5048729;28;20238;-78
2022/04/14 01:37:05;;;;;;;10.70;10.40;;;8.90;99.90;;;;;;5053720;28;20212;-78
2022/04/14 01:39:32;;;;;;;10.90;10.60;;;8.90;99.90;;;;;;5056561;28;20223;-77
2022/04/14 01:42:01;;;;;;;11.00;10.70;;;8.80;99.90;;;;;;5056733;28;20231;-77
2022/04/14 01:44:29;;;;;;;11.00;10.70;;;8.70;99.90;;;;;;5047793;28;20231;-77
2022/04/14 01:46:56;;;;;;;10.97;10.67;;;8.70;99.90;;;;;;5044585;28;20263;-78
2022/04/14 01:49:24;;;;;;;10.97;10.67;;;8.60;99.90;;;;;;5040105;28;20346;-79
2022/04/14 01:51:52;;;;;;;10.83;10.53;;;8.70;99.90;;;;;;5039224;28;20228;-79
2022/04/14 01:54:20;;;;;;;10.90;10.60;;;8.60;99.90;;;;;;5038684;28;20306;-78
2022/04/14 01:56:47;;;;;;;10.90;10.60;;;8.60;99.90;;;;;;5038746;28;20232;-79
2022/04/14 01:59:17;;;;;;;11.10;10.80;;;8.60;99.90;;;;;;5038525;28;20235;-78
2022/04/14 02:01:44;;;;;;;10.80;10.50;;;8.60;99.90;;;;;;5038754;28;20298;-78
2022/04/14 02:04:12;;;;;;;11.10;10.80;;;8.60;99.90;;;;;;5038881;28;20262;-78
2022/04/14 02:06:39;;;;;;;10.90;10.60;;;8.60;99.90;;;;;;5038391;28;20258;-79
2022/04/14 02:09:09;;;;;;;10.80;10.50;;;8.50;99.90;;;;;;5037423;28;20265;-79
2022/04/14 02:11:37;;;;;;;11.00;10.70;;;8.50;99.90;;;;;;5037083;28;20282;-78
2022/04/14 02:14:05;;;;;;;10.80;10.50;;;8.40;99.90;;;;;;5037651;28;20278;-79
2022/04/14 02:16:34;;;;;;;10.70;10.40;;;8.40;99.90;;;;;;5036880;28;20255;-78
2022/04/14 02:19:02;;;;;;;10.80;10.50;;;8.40;99.90;;;;;;5038970;28;20331;-78
2022/04/14 02:21:29;;;;;;;10.80;10.50;;;8.30;99.90;;;;;;5039693;28;20227;-79
2022/04/14 02:23:57;;;;;;;11.10;10.80;;;8.30;99.90;;;;;;5040355;28;20243;-79
2022/04/14 02:26:24;;;;;;;10.97;10.67;;;8.30;99.90;;;;;;5040830;28;20243;-79
2022/04/14 02:28:54;;;;;;;10.63;10.33;;;8.30;99.90;;;;;;5040307;28;20231;-78
2022/04/14 02:31:22;;;;;;;11.00;10.70;;;8.30;99.90;;;;;;5042917;28;20266;-79
2022/04/14 02:33:51;;;;;;;10.87;10.57;;;8.20;99.90;;;;;;5060529;28;20223;-78
2022/04/14 02:36:18;;;;;;;11.20;10.90;;;8.20;99.90;;;;;;5057550;28;20238;-78
2022/04/14 02:38:47;;;;;;;10.93;10.63;;;8.20;99.90;;;;;;5041738;28;20239;-78
2022/04/14 02:41:15;;;;;;;10.87;10.57;;;8.20;99.90;;;;;;5040615;28;20267;-78
2022/04/14 02:43:42;;;;;;;11.20;10.90;;;8.10;99.90;;;;;;5041056;28;20235;-77
2022/04/14 02:46:10;;;;;;;11.07;10.77;;;8.10;99.90;;;;;;5040551;28;20239;-78
2022/04/14 02:48:38;;;;;;;10.97;10.67;;;8.00;99.90;;;;;;5040539;28;20262;-78
2022/04/14 02:51:07;;;;;;;10.90;10.60;;;7.90;99.90;;;;;;5039485;28;20538;-78
2022/04/14 02:53:34;;;;;;;10.90;10.60;;;7.90;99.90;;;;;;5040024;28;20231;-78
2022/04/14 02:56:02;;;;;;;10.93;10.63;;;7.90;99.90;;;;;;5040154;28;20235;-78
2022/04/14 02:58:29;;;;;;;11.10;10.80;;;7.80;99.90;;;;;;5039724;28;20375;-78
2022/04/14 03:00:57;;;;;;;11.20;10.90;;;7.90;99.90;;;;;;5039283;28;20298;-78
2022/04/14 03:03:26;;;;;;;10.93;10.63;;;7.80;99.90;;;;;;5039524;28;20227;-78
2022/04/14 03:05:53;;;;;;;10.93;10.63;;;7.80;99.90;;;;;;5042691;28;20235;-78
2022/04/14 03:08:22;;;;;;;11.43;11.03;;;7.80;99.90;;;;;;5047534;28;20289;-78
2022/04/14 03:10:50;;;;;;;11.17;10.87;;;7.80;99.90;;;;;;5049503;28;20271;-79
2022/04/14 03:13:20;;;;;;;10.90;10.60;;;7.80;99.90;;;;;;5050119;28;20247;-79
2022/04/14 03:15:49;;;;;;;10.87;10.57;;;7.80;99.90;;;;;;5055173;28;20235;-78
2022/04/14 03:18:17;;;;;;;10.90;10.60;;;7.80;99.90;;;;;;5055317;28;20235;-78
2022/04/14 03:20:44;;;;;;;11.30;11.00;;;7.80;99.90;;;;;;5051745;28;20366;-78
2022/04/14 03:23:12;;;;;;;11.10;10.80;;;7.70;99.90;;;;;;5043610;28;20219;-78
2022/04/14 03:25:41;;;;;;;11.03;10.73;;;7.70;99.90;;;;;;5055349;28;20235;-79
2022/04/14 03:28:09;;;;;;;11.17;10.87;;;7.60;99.90;;;;;;5055973;28;20235;-78
2022/04/14 03:30:37;;;;;;;10.93;10.63;;;7.60;99.90;;;;;;5053915;28;20247;-78
2022/04/14 03:33:04;;;;;;;10.60;10.30;;;7.60;99.90;;;;;;5054324;28;20227;-78
2022/04/14 03:35:32;;;;;;;11.10;10.80;;;7.60;99.90;;;;;;5053871;28;20235;-79
2022/04/14 03:38:00;;;;;;;10.87;10.57;;;7.60;99.90;;;;;;5054198;28;20231;-78
2022/04/14 03:40:27;;;;;;;11.00;10.70;;;7.60;99.90;;;;;;5054775;28;20231;-78
2022/04/14 03:42:57;;;;;;;10.63;10.33;;;7.60;99.90;;;;;;5055387;28;20271;-79
2022/04/14 03:45:24;;;;;;;10.70;10.40;;;7.60;99.90;;;;;;5056242;28;20259;-79
2022/04/14 03:47:52;;;;;;;10.90;10.60;;;7.60;99.90;;;;;;5055754;28;20262;-79
2022/04/14 03:50:20;;;;;;;11.00;10.70;;;7.60;99.90;;;;;;5057704;28;20223;-79
2022/04/14 03:52:48;;;;;;;11.00;10.70;;;7.60;99.90;;;;;;5054419;28;20231;-78
2022/04/14 03:55:15;;;;;;;11.47;11.07;;;7.60;99.90;;;;;;5053148;28;20239;-79
2022/04/14 03:57:43;;;;;;;11.43;11.03;;;7.60;99.90;;;;;;5051910;28;20267;-78
2022/04/14 04:00:14;;;;;;;11.57;11.17;;;7.60;99.90;;;;;;5045318;28;20227;-78
2022/04/14 04:02:41;;;;;;;11.70;11.30;;;7.50;99.90;;;;;;5043097;28;20243;-79
2022/04/14 04:05:12;;;;;;;11.60;11.20;;;7.40;99.90;;;;;;5042497;28;20232;-79
2022/04/14 04:07:39;;;;;;;11.43;11.03;;;7.40;99.90;;;;;;5041870;28;20236;-79
2022/04/14 04:10:08;;;;;;;11.37;10.97;;;7.40;99.90;;;;;;5041976;28;20239;-79
2022/04/14 04:12:36;;;;;;;11.40;11.00;;;7.40;99.90;;;;;;5039128;28;20326;-78
2022/04/14 04:15:04;;;;;;;12.10;11.70;;;7.40;99.90;;;;;;5038336;28;20275;-78
2022/04/14 04:17:33;;;;;;;12.10;11.70;;;7.40;99.90;;;;;;5038974;28;20231;-78
2022/04/14 04:20:01;;;;;;;12.17;11.77;;;7.30;99.90;;;;;;5038995;28;20238;-78
2022/04/14 04:22:29;;;;;;;12.00;11.60;;;7.30;99.90;;;;;;5038630;28;20231;-78
2022/04/14 04:24:57;;;;;;;12.50;12.10;;;7.30;99.90;;;;;;5038711;28;20308;-79
2022/04/14 04:27:25;;;;;;;12.60;12.20;;;7.20;99.90;;;;;;5038607;28;20232;-78
2022/04/14 04:29:52;;;;;;;12.53;12.13;;;7.20;99.90;;;;;;5037826;28;20235;-78
2022/04/14 04:32:20;;;;;;;12.17;11.77;;;7.10;99.90;;;;;;5037562;28;20232;-78
2022/04/14 04:34:49;;;;;;;11.60;11.20;;;7.10;99.90;;;;;;5037736;28;20240;-79
2022/04/14 04:37:17;;;;;;;12.10;11.70;;;7.20;99.90;;;;;;5037953;28;20269;-78
2022/04/14 04:39:44;;;;;;;12.03;11.63;;;7.20;99.90;;;;;;5037427;28;20231;-78
2022/04/14 04:42:12;;;;;;;12.20;11.80;;;7.20;99.90;;;;;;5036988;28;20238;-78
2022/04/14 04:44:40;;;;;;;12.30;11.90;;;7.10;99.90;;;;;;5037562;28;20290;-77
2022/04/14 04:47:08;;;;;;;12.20;11.80;;;7.10;99.90;;;;;;5038026;28;20262;-77
2022/04/14 04:49:36;;;;;;;12.25;11.85;;;7.10;99.90;;;;;;5038909;28;20467;-81
2022/04/14 04:52:06;;;;;;;11.80;11.40;;;6.90;99.90;;;;;;5053384;28;20211;-82
2022/04/14 04:54:34;;;;;;;12.10;11.70;;;6.90;99.90;;;;;;5041233;28;20317;-82
2022/04/14 04:57:02;;;;;;;12.30;11.90;;;6.90;99.90;;;;;;5040458;28;20231;-81
2022/04/14 04:59:29;;;;;;;11.93;11.53;;;6.90;99.90;;;;;;5040817;28;20266;-80
2022/04/14 05:01:57;;;;;;;12.10;11.70;;;6.90;99.90;;;;;;5080200;22;20288;-81
2022/04/14 05:04:25;;;;;;;12.10;11.70;;;7.00;99.90;;;;;;5071964;28;20287;-81
2022/04/14 05:06:54;;;;;;;12.07;11.67;;;7.00;99.90;;;;;;5080703;28;20230;-80
2022/04/14 05:09:32;;;;;;;12.00;11.60;;;7.10;99.90;;;;;;5072258;28;20214;-81
2022/04/14 05:12:03;;;;;;;11.87;11.47;;;7.10;99.90;;;;;;5079635;28;20226;-81
2022/04/14 05:14:31;;;;;;;11.70;11.30;;;7.20;99.90;;;;;;5070763;28;20239;-80
2022/04/14 05:17:01;;;;;;;11.67;11.27;;;7.30;99.90;;;;;;5060111;28;20258;-82
2022/04/14 05:19:30;;;;;;;11.53;11.13;;;7.30;99.90;;;;;;5059739;28;20317;-82
2022/04/14 05:22:01;;;;;;;11.70;11.30;;;7.30;99.90;;;;;;5060154;28;20234;-82
2022/04/14 05:24:32;;;;;;;11.90;11.50;;;7.40;99.90;;;;;;5076505;28;20316;-82
2022/04/14 05:27:00;;;;;;;11.43;11.03;;;7.40;99.90;;;;;;5067455;28;20317;-82
2022/04/14 05:29:28;;;;;;;11.70;11.30;;;7.50;99.90;;;;;;5064064;28;20219;-81
2022/04/14 05:31:57;;;;;;;11.80;11.40;;;7.50;99.90;;;;;;5074791;28;20230;-80
2022/04/14 05:34:28;;;;;;;11.63;11.23;;;7.60;99.90;;;;;;5069198;28;20266;-81
2022/04/14 05:36:56;;;;;;;11.67;11.27;;;7.60;99.90;;;;;;5060940;28;20218;-82
2022/04/14 05:39:27;;;;;;;11.70;11.30;;;7.70;99.90;;;;;;5061635;28;20425;-82
2022/04/14 05:42:04;;;;;;;11.47;11.07;;;7.80;99.90;;;;;;5060412;28;20277;-81
2022/04/14 05:44:33;;;;;;;10.93;10.63;;;7.90;99.90;;;;;;5060561;28;20231;-80
2022/04/14 05:47:03;;;;;;;10.90;10.60;;;8.10;99.90;;;;;;5063245;28;20241;-82
2022/04/14 05:49:32;;;;;;;10.60;10.30;;;8.20;99.90;;;;;;5073377;28;20226;-83
2022/04/14 05:52:03;;;;;;;10.63;10.33;;;8.40;99.90;;;;;;5073601;28;20226;-81
2022/04/14 05:54:33;;;;;;;10.57;10.27;;;8.60;99.90;;;;;;5083557;28;20264;-81
2022/04/14 05:57:06;;;;;;;10.50;10.20;;;8.70;99.90;;;;;;5084158;28;20245;-81
2022/04/14 05:59:33;;;;;;;10.50;10.20;;;8.90;99.90;;;;;;5081368;28;20214;-81
2022/04/14 06:02:01;;;;;;;10.60;10.30;;;9.10;99.90;;;;;;5076355;28;20242;-81
2022/04/14 06:04:31;;;;;;;10.27;9.97;;;9.30;99.90;;;;;;5067489;28;20234;-82
2022/04/14 06:07:01;;;;;;;10.23;9.93;;;9.50;99.90;;;;;;5087434;28;20236;-82
2022/04/14 06:09:30;;;;;;;10.03;9.73;;;9.60;99.90;;;;;;5088172;28;20231;-81
2022/04/14 06:12:00;;;;;;;10.20;9.90;;;9.80;99.90;;;;;;5086613;28;20234;-82
2022/04/14 06:14:33;;;;;;;10.33;10.03;;;9.90;99.90;;;;;;5085513;28;20265;-82
2022/04/14 06:17:01;;;;;;;9.87;9.57;;;10.10;99.90;;;;;;5085581;28;20230;-82
2022/04/14 06:19:28;;;;;;;9.87;9.57;;;10.20;99.90;;;;;;5084454;28;20253;-82
2022/04/14 06:21:58;;;;;;;9.80;9.50;;;10.40;99.90;;;;;;5083474;28;20218;-82
2022/04/14 06:24:27;;;;;;;9.90;9.60;;;10.40;99.90;;;;;;5083101;28;20230;-82
2022/04/14 06:26:56;;;;;;;9.60;9.30;;;10.60;99.90;;;;;;5078367;28;20230;-82
2022/04/14 06:29:26;;;;;;;10.00;9.70;;;10.60;99.90;;;;;;5074119;28;20222;-83
2022/04/14 06:31:57;;;;;;;9.70;9.40;;;10.60;99.90;;;;;;5074505;28;20353;-81
2022/04/14 06:34:25;;;;;;;9.37;9.07;;;10.70;99.90;;;;;;5083000;28;20245;-82
2022/04/14 06:36:53;;;;;;;9.63;9.33;;;10.90;99.90;;;;;;5082509;28;20289;-82
2022/04/14 06:39:23;;;;;;;9.73;9.43;;;11.00;99.90;;;;;;5083087;28;20218;-83
2022/04/14 06:41:52;;;;;;;9.30;9.00;;;11.10;99.90;;;;;;5082970;28;20230;-82
2022/04/14 06:44:23;;;;;;;9.50;9.20;;;11.30;99.90;;;;;;5083176;28;20257;-83
2022/04/14 06:46:51;;;;;;;9.60;9.30;;;11.30;99.90;;;;;;5083778;28;20239;-84
2022/04/14 06:49:23;;;;;;;9.87;9.57;;;11.40;99.90;;;;;;5083104;28;20266;-84
2022/04/14 06:51:51;;;;;;;9.87;9.57;;;11.40;99.90;;;;;;5083540;28;20230;-83
2022/04/14 06:54:19;;;;;;;9.90;9.60;;;11.60;99.90;;;;;;5086327;28;20241;-83
2022/04/14 06:59:45;;;;;;;9.43;9.13;;;11.80;99.90;;;;;;5093963;28;20233;-83
2022/04/14 07:02:16;;;;;;;9.90;9.60;;;11.90;99.90;;;;;;5092805;28;20238;-82
2022/04/14 07:04:58;;;;;;;9.80;9.50;;;11.90;99.90;;;;;;5096675;28;20253;-83
2022/04/14 07:07:33;;;;;;;9.90;9.60;;;12.10;99.90;;;;;;5099191;28;20229;-82
2022/04/14 07:10:02;;;;;;;10.00;9.70;;;12.20;99.90;;;;;;5099588;28;20210;-82
2022/04/14 07:15:20;;;;;;;9.90;9.60;;;12.40;99.90;;;;;;5096924;28;20238;-85
2022/04/14 07:17:48;;;;;;;9.90;9.60;;;12.50;99.90;;;;;;5099072;28;20226;-84
2022/04/14 07:20:18;;;;;;;9.90;9.60;;;12.50;99.90;;;;;;5100734;28;20249;-84
2022/04/14 07:22:55;;;;;;;10.00;9.70;;;12.50;99.90;;;;;;5100244;28;20215;-83
2022/04/14 07:25:24;;;;;;;10.20;9.90;;;12.50;99.90;;;;;;5101322;28;20269;-84
2022/04/14 07:27:53;;;;;;;9.97;9.67;;;12.60;99.90;;;;;;5101003;28;20222;-83
2022/04/14 07:30:23;;;;;;;10.17;9.87;;;12.80;99.90;;;;;;5100213;28;20222;-83
2022/04/14 07:32:52;;;;;;;9.50;9.20;;;12.90;99.90;;;;;;5094733;28;20214;-82
2022/04/14 07:35:32;;;;;;;9.90;9.60;;;13.10;99.90;;;;;;5088394;28;20256;-85
2022/04/14 07:38:03;;;;;;;10.03;9.73;;;13.20;99.90;;;;;;5088972;28;20252;-84
2022/04/14 07:40:31;;;;;;;9.90;9.60;;;13.20;99.90;;;;;;5086067;28;20224;-83
2022/04/14 07:42:59;;;;;;;10.07;9.77;;;13.10;99.90;;;;;;5083902;28;20296;-86
2022/04/14 07:48:46;;;;;;;10.00;9.70;;;13.40;99.90;;;;;;5099120;28;20214;-81
2022/04/14 07:51:56;;;;;;;10.20;9.90;;;13.70;99.90;;;;;;5086228;28;20345;-82
2022/04/14 07:54:45;;;;;;;10.40;10.10;;;13.90;99.90;;;;;;5099221;28;20328;-84
2022/04/14 07:57:57;;;;;;;10.40;10.10;;;14.00;99.90;;;;;;5082967;28;20647;-82
2022/04/14 08:00:55;;;;;;;10.10;9.80;;;14.10;99.90;;;;;;5074694;28;20231;-83
2022/04/14 08:03:36;;;;;;;10.40;10.10;;;14.20;99.90;;;;;;5078719;28;20463;-84
2022/04/14 08:09:06;;;;;;;10.25;9.95;;;14.10;99.90;;;;;;5085277;28;20226;-82
2022/04/14 08:11:35;;;;;;;10.10;9.80;;;14.10;99.90;;;;;;5100124;28;20297;-82
2022/04/14 08:14:03;;;;;;;9.90;9.60;;;14.20;99.90;;;;;;5100241;28;20222;-81
2022/04/14 08:16:51;;;;;;;9.97;9.67;;;14.30;99.90;;;;;;5099277;28;20229;-81
2022/04/14 08:22:52;;;;;;;9.68;9.38;;;14.80;99.90;;;;;;5093822;28;20314;-81
2022/04/14 08:25:29;;;;;;;10.07;9.77;;;15.10;99.90;;;;;;5076069;28;20230;-82
2022/04/14 08:28:07;;;;;;;9.95;9.65;;;15.30;99.90;;;;;;5061803;28;20230;-80
2022/04/14 08:30:37;;;;;;;9.60;9.30;;;15.60;99.90;;;;;;5061475;28;20235;-81
2022/04/14 08:33:10;;;;;;;9.90;9.60;;;15.80;99.90;;;;;;5061803;28;20243;-85
2022/04/14 08:35:38;;;;;;;10.40;10.10;;;16.00;99.90;;;;;;5062459;28;20222;-84
2022/04/14 08:38:08;;;;;;;10.20;9.90;;;16.00;99.90;;;;;;5061866;28;20227;-84
2022/04/14 08:40:44;;;;;;;10.48;10.18;;;16.10;99.90;;;;;;5062563;28;20258;-84
2022/04/14 08:43:13;;;;;;;10.23;9.93;;;16.30;99.90;;;;;;5062217;28;20242;-84
2022/04/14 08:45:52;;;;;;;10.57;10.27;;;16.40;99.90;;;;;;5079344;28;20229;-85
2022/04/14 08:48:24;;;;;;;10.30;10.00;;;16.40;99.90;;;;;;5070493;28;20308;-86
2022/04/14 08:50:52;;;;;;;10.10;9.80;;;16.60;99.90;;;;;;5062643;28;20295;-85
2022/04/14 08:53:20;;;;;;;10.35;10.05;;;16.70;99.90;;;;;;5064029;28;20234;-84
2022/04/14 08:55:57;;;;;;;10.27;9.98;;;16.90;99.90;;;;;;5073785;28;20256;-85
2022/04/14 08:58:27;;;;;;;10.30;10.00;;;17.10;99.90;;;;;;5082882;28;20226;-86
2022/04/14 09:00:58;;;;;;;10.60;10.30;;;17.00;99.90;;;;;;5083305;28;20238;-85
2022/04/14 09:03:28;;;;;;;10.30;10.00;;;17.10;99.90;;;;;;5081568;28;20284;-85
2022/04/14 09:05:56;;;;;;;10.20;9.90;;;17.40;99.90;;;;;;5076558;28;20248;-85
2022/04/14 09:08:26;;;;;;;10.30;10.00;;;17.60;99.90;;;;;;5061119;28;20278;-86
2022/04/14 09:13:43;;;;;;;10.15;9.85;;;18.00;99.90;;;;;;5061556;28;20226;-86
2022/04/14 09:16:11;;;;;;;10.15;9.85;;;18.20;99.90;;;;;;5059355;28;20230;-87
2022/04/14 09:18:40;;;;;;;10.23;9.93;;;18.60;99.90;;;;;;5059955;28;20222;-87
2022/04/14 09:21:10;;;;;;;9.80;9.50;;;18.90;99.90;;;;;;5060060;28;20241;-86
2022/04/14 09:23:39;;;;;;;10.20;9.90;;;18.80;99.90;;;;;;5071096;28;20266;-84
2022/04/14 09:26:23;;;;;;;10.30;10.00;;;18.70;99.90;;;;;;5083229;28;20261;-84
2022/04/14 09:29:05;;;;;;;10.30;10.00;;;19.10;99.90;;;;;;5084838;28;20226;-84
2022/04/14 09:31:54;;;;;;;10.60;10.30;;;19.60;99.90;;;;;;5083535;28;20237;-84
2022/04/14 09:34:48;;;;;;;10.68;10.38;;;19.70;99.90;;;;;;5083337;28;20233;-84
2022/04/14 09:37:17;;;;;;;10.43;10.13;;;19.50;99.90;;;;;;5082583;28;20227;-84
2022/04/14 09:40:05;;;;;;;10.05;9.75;;;19.70;99.90;;;;;;5083145;28;20280;-83
2022/04/14 09:45:21;;;;;;;10.27;9.98;;;20.20;99.90;;;;;;5082954;28;20236;-84
2022/04/14 09:47:50;;;;;;;10.45;10.15;;;20.50;99.90;;;;;;5083014;28;20238;-84
2022/04/14 09:53:15;;;;;;;10.20;9.90;;;20.60;99.90;;;;;;5068149;28;20238;-87
2022/04/14 09:59:19;;;;;;;10.40;10.10;;;20.90;99.90;;;;;;5081040;28;20214;-85
2022/04/14 10:02:41;;;;;;;10.32;10.02;;;21.00;99.90;;;;;;5080967;28;20230;-85
2022/04/14 10:05:19;;;;;;;10.20;9.90;;;21.10;99.90;;;;;;5097413;27;20248;-86
2022/04/14 10:11:28;;;;;;;10.40;10.10;;;21.30;99.90;;;;;;5066181;28;20230;-86
2022/04/14 10:13:56;;;;;;;10.10;9.80;;;21.50;99.90;;;;;;5084576;28;20283;-85
2022/04/14 10:17:06;;;;;;;10.55;10.25;;;21.30;99.90;;;;;;5084208;28;20245;-84
2022/04/14 10:20:25;;;;;;;10.20;9.90;;;21.40;99.90;;;;;;5085680;28;20327;-84
2022/04/14 10:23:18;;;;;;;10.40;10.10;;;21.90;99.90;;;;;;5084303;28;20321;-84
2022/04/14 10:26:09;;;;;;;10.40;10.10;;;22.00;99.90;;;;;;5078387;28;20218;-84
2022/04/14 10:28:46;;;;;;;10.63;10.32;;;22.60;99.90;;;;;;5086176;28;20729;-84
2022/04/14 10:31:34;;;;;;;10.20;9.90;;;22.40;99.90;;;;;;5086110;28;20249;-84
2022/04/14 10:34:11;;;;;;;10.32;10.02;;;22.30;99.90;;;;;;5086570;28;20237;-84
2022/04/14 10:36:41;;;;;;;10.50;10.20;;;22.00;99.90;;;;;;5085580;28;20233;-81
2022/04/14 10:39:36;;;;;;;10.30;10.00;;;22.20;99.90;;;;;;5082594;28;20230;-82
2022/04/14 11:03:19;;;;;;;10.18;9.88;;;24.20;99.90;;;;;;5105488;22;20298;-83
2022/04/14 11:05:49;;;;;;;10.25;9.95;;;24.00;99.90;;;;;;5080607;28;20231;-82
2022/04/14 11:08:29;;;;;;;10.27;9.98;;;23.80;99.90;;;;;;5078192;28;20257;-84
2022/04/14 11:11:12;;;;;;;10.00;9.70;;;24.00;99.90;;;;;;5082801;28;20222;-84
2022/04/14 11:14:09;;;;;;;10.30;10.00;;;24.00;99.90;;;;;;5083329;28;20288;-83
2022/04/14 11:16:44;;;;;;;10.60;10.30;;;23.70;99.90;;;;;;5081597;28;20242;-84
2022/04/14 11:19:26;;;;;;;10.40;10.10;;;23.90;99.90;;;;;;5061701;28;20300;-83
2022/04/14 11:22:08;;;;;;;10.30;10.00;;;24.30;99.90;;;;;;5062177;28;20347;-82
2022/04/14 11:24:45;;;;;;;9.90;9.60;;;24.40;99.90;;;;;;5070041;28;20270;-82
2022/04/14 11:27:16;;;;;;;10.40;10.10;;;24.40;99.90;;;;;;5062722;28;20702;-82
2022/04/14 11:29:47;;;;;;;10.00;9.70;;;24.60;99.90;;;;;;5063766;28;20238;-82
2022/04/14 11:32:37;;;;;;;10.23;9.93;;;24.60;99.90;;;;;;5062844;28;20252;-84
2022/04/14 11:35:16;;;;;;;10.30;10.00;;;24.60;99.90;;;;;;5063835;28;20227;-84
2022/04/14 11:37:46;;;;;;;10.05;9.75;;;24.80;99.90;;;;;;5062552;28;20226;-82
2022/04/14 11:40:23;;;;;;;10.30;10.00;;;25.10;99.90;;;;;;5062316;28;20299;-82
2022/04/14 11:42:52;;;;;;;10.40;10.10;;;25.40;99.90;;;;;;5071846;28;20330;-83
2022/04/14 11:45:23;;;;;;;10.27;9.98;;;25.40;99.90;;;;;;5066132;28;20236;-84
2022/04/14 11:48:03;;;;;;;10.38;10.07;;;25.20;99.90;;;;;;5081641;28;20269;-87
2022/04/14 11:50:38;;;;;;;10.35;10.05;;;25.10;99.90;;;;;;5080654;28;20329;-87
2022/04/14 11:53:07;;;;;;;10.05;9.75;;;25.30;99.90;;;;;;5080293;28;20237;-87
2022/04/14 11:55:39;;;;;;;10.38;10.07;;;25.30;99.90;;;;;;5080658;28;20230;-87
2022/04/14 11:58:08;;;;;;;10.40;10.10;;;25.40;99.90;;;;;;5081367;28;20288;-83
2022/04/14 12:00:44;;;;;;;10.45;10.15;;;25.50;99.90;;;;;;5080272;28;20241;-85
2022/04/14 12:03:17;;;;;;;10.57;10.27;;;25.60;99.90;;;;;;5079993;28;20303;-84
2022/04/14 12:05:52;;;;;;;10.57;10.27;;;25.70;99.90;;;;;;5082656;28;20235;-85
2022/04/14 12:08:24;;;;;;;10.30;10.00;;;25.80;99.90;;;;;;5082352;28;20237;-83
2022/04/14 12:10:53;;;;;;;10.40;10.10;;;25.50;99.90;;;;;;5081199;28;20222;-85
2022/04/14 12:13:23;;;;;;;10.60;10.30;;;25.00;99.90;;;;;;5080290;28;20234;-83
2022/04/14 12:16:03;;;;;;;9.90;9.60;;;24.70;99.90;;;;;;5080535;28;20238;-85
2022/04/14 12:18:33;;;;;;;10.10;9.80;;;24.90;99.90;;;;;;5079933;28;20249;-85
2022/04/14 12:21:01;;;;;;;10.30;10.00;;;25.40;99.90;;;;;;5080255;28;20238;-86
2022/04/14 12:23:29;;;;;;;10.20;9.90;;;25.80;99.90;;;;;;5079753;28;20315;-85
2022/04/14 12:25:59;;;;;;;10.23;9.93;;;26.00;99.90;;;;;;5080263;28;20225;-85
2022/04/14 12:28:27;;;;;;;10.32;10.02;;;26.00;99.90;;;;;;5080364;28;20226;-84
2022/04/14 12:30:56;;;;;;;10.40;10.10;;;25.50;99.90;;;;;;5080302;28;20233;-85
2022/04/14 12:33:29;;;;;;;10.35;10.05;;;25.30;99.90;;;;;;5078507;28;20226;-86
2022/04/14 12:36:14;;;;;;;10.15;9.85;;;25.50;99.90;;;;;;5069323;28;20231;-85
2022/04/14 12:38:52;;;;;;;10.40;10.10;;;25.70;99.90;;;;;;5061515;28;20241;-85
2022/04/14 12:41:22;;;;;;;10.73;10.43;;;25.50;99.90;;;;;;5060666;28;20233;-86
2022/04/14 12:43:51;;;;;;;10.73;10.43;;;25.50;99.90;;;;;;5060060;28;20293;-85
2022/04/14 12:46:30;;;;;;;10.77;10.48;;;25.70;99.90;;;;;;5060219;28;20231;-85
2022/04/14 12:49:06;;;;;;;10.73;10.43;;;25.70;99.90;;;;;;5060642;28;20253;-86
2022/04/14 12:51:45;;;;;;;11.73;11.32;;;26.10;99.90;;;;;;5060679;28;20238;-86
2022/04/14 12:54:18;;;;;;;11.30;11.00;;;25.80;99.90;;;;;;5060587;28;20223;-86
2022/04/14 12:57:01;;;;;;;10.98;10.68;;;25.60;99.90;;;;;;5059681;28;20241;-86
2022/04/14 12:59:31;;;;;;;11.05;10.75;;;25.80;99.90;;;;;;5061458;28;20227;-86
2022/04/14 13:02:07;;;;;;;10.98;10.68;;;25.70;99.90;;;;;;5059692;28;20239;-85
2022/04/14 13:04:38;;;;;;;10.70;10.40;;;25.50;99.90;;;;;;5062441;28;20233;-86
2022/04/14 13:07:12;;;;;;;10.40;10.10;;;25.70;99.90;;;;;;5063606;28;20281;-86
2022/04/14 13:09:45;;;;;;;10.57;10.27;;;25.50;99.90;;;;;;5074278;28;20211;-84
2022/04/14 13:12:13;;;;;;;10.60;10.30;;;25.80;99.90;;;;;;5076082;28;20218;-85
2022/04/14 13:14:47;;;;;;;10.60;10.30;;;26.40;99.90;;;;;;5074458;28;20227;-85
2022/04/14 13:17:15;;;;;;;10.77;10.48;;;26.90;99.90;;;;;;5074366;28;20289;-84
2022/04/14 13:19:45;;;;;;;10.90;10.60;;;27.20;99.90;;;;;;5078216;28;20257;-85
2022/04/14 13:22:15;;;;;;;10.95;10.65;;;27.20;99.90;;;;;;5077418;28;20253;-83
2022/04/14 13:24:43;;;;;;;11.02;10.73;;;27.00;99.90;;;;;;5078193;28;20250;-83
2022/04/14 13:27:12;;;;;;;11.20;10.90;;;26.90;99.90;;;;;;5074417;28;20225;-84
2022/04/14 13:29:42;;;;;;;11.10;10.80;;;26.30;99.90;;;;;;5071378;28;20211;-86
2022/04/14 13:32:11;;;;;;;10.90;10.60;;;26.20;99.90;;;;;;5078848;28;20257;-86
2022/04/14 13:34:40;;;;;;;11.10;10.80;;;25.70;99.90;;;;;;5073258;28;20223;-86
2022/04/14 13:37:10;;;;;;;11.18;10.88;;;25.60;99.90;;;;;;5061011;28;20223;-85
2022/04/14 13:39:41;;;;;;;11.10;10.80;;;25.90;99.90;;;;;;5067204;28;20237;-86
2022/04/14 13:42:17;;;;;;;11.10;10.80;;;26.30;99.90;;;;;;5061069;28;20329;-87
2022/04/14 13:44:45;;;;;;;11.18;10.88;;;26.20;99.90;;;;;;5067063;28;20214;-86
2022/04/14 13:47:17;;;;;;;11.25;10.95;;;26.50;99.90;;;;;;5068364;28;20256;-86
2022/04/14 13:49:46;;;;;;;11.10;10.80;;;26.50;99.90;;;;;;5077763;28;20211;-85